Vlad Korotkov

Jefe de ojeadores - Fakel
9 Jul 2028
Domingo
Continuar

Personalidad

Adaptabilidad (1) Ambición (14) Controversia (10) Lealtad (6) Presión (2) Profesionalismo (4) Deportividad (3) Temperamento (13)

Perfil

Estilo de dirección Democrático
Licencia Continental C
Determinación 6
Gestión de personas 4
Motivación 8
Disciplina 7
Satisfacción laboral
100%
Fatiga
0%
Cargo Jefe de ojeadores
Salario 24.2K p/s
Contrato 14.03.2030

Rendimiento

Comportamiento Bueno
Efectividad del entrenamiento
34%
Desarrollo de jugadores
15%
Prevención de lesiones
35%
Implementación táctica
15%

Eventos recientes

Asistió a una reunión de captación ahora
Recomendó un objetivo de fichaje ahora
Asistió a una reunión de captación 7d atrás
Recomendó un objetivo de fichaje 7d atrás
Recomendó un objetivo de fichaje 7d atrás
Recomendó un objetivo de fichaje 7d atrás
Recomendó un objetivo de fichaje 14d atrás
Recomendó un objetivo de fichaje 14d atrás

Actualmente siguiendo

100
Jugador Club Estado Habilidad Confianza Observado Última observación Último voto
Maxim Matyusha Chernomorets Activo 81 / 81 72% 1 20.06.2028 Aprobar
Maxim Shorkin Neftekhimik Perdido 92 / 100 72% 1 14.06.2028 Aprobar
Edgardo Fariña Nizhniy Novgorod Activo 122 / 106 40% 3 12.06.2028 -
Alexandr Korotkov Rotor Activo 100 / 109 40% 3 12.06.2028 -
Roberto Pierno Campobasso Activo 115 / 106 40% 1 12.06.2028 -
Ilja Agapov Ufa Activo 121 / 117 40% 2 10.06.2028 -
Rhys Bennett Fleetwood Town Activo 104 / 124 40% 2 10.06.2028 -
Matthew Baker Newport County Activo 105 / 97 40% 1 10.06.2028 -
Max Sanders Crewe Alexandra Activo 107 / 125 40% 1 09.06.2028 -
Géza Dávid Turi Grimsby Town Activo 111 / 94 40% 1 09.06.2028 -
Denver Hume Fleetwood Town Activo 116 / 92 40% 6 08.06.2028 -
Nohan Kenneh Tranmere Rovers Activo 93 / 94 40% 1 08.06.2028 -
Liam Gordon Port Vale Activo 109 / 115 40% 1 08.06.2028 -
Alexandr Kovalenko Sochi Activo 111 / 123 40% 3 07.06.2028 -
Shaun McWilliams Cheltenham Town Activo 110 / 117 40% 2 07.06.2028 -
Baba Adeeko Wigan Athletic Activo 125 / 104 40% 2 07.06.2028 -
Luca Hoole Shrewsbury Town Activo 112 / 109 40% 3 02.06.2028 -
Kirill Bozhenov Sokol Activo 102 / 106 40% 2 02.06.2028 -
Matt Smith Newport County Activo 113 / 116 40% 3 02.06.2028 -
Konstantin Kovalev Volga Activo 109 / 96 40% 1 01.06.2028 -
Riley Owen Stevenage Activo 118 / 125 40% 1 31.05.2028 -
Rhys Walters Port Vale Activo 105 / 101 40% 2 30.05.2028 -
Pavel Maslov Chaika Activo 113 / 104 40% 3 30.05.2028 -
Joe Snowdon Swindon Town Activo 97 / 117 40% 1 28.05.2028 -
Federico Giraudo Casarano Activo 117 / 110 40% 1 28.05.2028 -
Oliver Urso Lecco Activo 103 / 95 40% 2 27.05.2028 -
Kees de Boer Salernitana Activo 113 / 129 40% 1 27.05.2028 -
Kamil Conteh Bristol Rovers Activo 105 / 122 40% 1 27.05.2028 -
Mattia Maffei Trento Activo 95 / 113 40% 1 26.05.2028 -
Akin Odimayo Crawley Town Activo 100 / 104 40% 1 26.05.2028 -
Garrik Levin Chelyabinsk Activo 110 / 95 40% 2 25.05.2028 -
Elliot Bonds Fleetwood Town Activo 103 / 119 40% 2 25.05.2028 -
Denzel Hall Rotherham United Activo 107 / 98 40% 1 25.05.2028 -
Bojan Roganović Torpedo Moscow Activo 117 / 110 40% 3 22.05.2028 -
Ignacio Saavedra Sochi Activo 120 / 125 40% 2 21.05.2028 -
Finley Burns Wigan Athletic Activo 110 / 97 40% 2 18.05.2028 -
Reece Oxford Shrewsbury Town Activo 119 / 102 40% 1 17.05.2028 -
Eyob Zambataro Novara Activo 116 / 95 40% 1 13.05.2028 -
Jack Shepherd Swindon Town Activo 125 / 122 40% 1 10.05.2028 -
Iker Pozo Rodina Activo 123 / 117 40% 1 08.05.2028 -
Ettore Quirini Salernitana Activo 116 / 131 40% 1 08.05.2028 -
Ryan Stirk Chesterfield Activo 113 / 125 40% 2 04.05.2028 -
Timofey Kalistratov KAMAZ Activo 105 / 99 40% 1 04.05.2028 -
Kelechi Nwakali Barnsley Activo 123 / 115 40% 2 03.05.2028 -
Dan Happe Salford City Activo 115 / 98 40% 1 03.05.2028 -
Arthur Read Colchester United Activo 103 / 95 40% 1 01.05.2028 -
Alexandr Ivankov Torpedo Moscow Activo 119 / 107 40% 1 01.05.2028 -
Ashley Charles Bromley Activo 90 / 97 40% 1 29.04.2028 -
Zane Albarus Shrewsbury Town Activo 98 / 99 40% 1 29.04.2028 -
Rich Sackey Medeama Activo 101 / 106 40% 1 28.04.2028 -
Maxim Shnaptsev Baltika Activo 105 / 100 40% 1 20.04.2028 -
Temirkan Sundukov Dinamo Makhachkala Activo 110 / 113 40% 1 20.04.2028 -
Jack Perkins Bromley Activo 94 / 91 40% 1 13.04.2028 -
Artem Bykov Sokol Activo 102 / 104 40% 1 12.04.2028 -
Claud Adjapong Potenza Activo 105 / 95 40% 1 12.04.2028 -
Savely Nikiforov Zenit Activo 86 / 79 40% 1 12.04.2028 -
Nicolas Previtali Giana Erminio Activo 105 / 127 40% 1 09.04.2028 -
Bojan Dimoski Akron Activo 115 / 98 40% 1 04.04.2028 -
Yegor Noskov SKA Khabarovsk Activo 94 / 109 40% 1 04.04.2028 -
Artem Kotik Neftekhimik Activo 96 / 96 30% 1 / 1m 05.01.2028 -
Vladlen Ostrovsky Irkutsk Activo 82 / 87 30% 1 / 1m 06.10.2027 -
Yury Nesterenko Kuban Perdido 97 / 97 69% 1 23.08.2027 Aprobar
Maxim Belov Dinamo Brest Activo 103 / 95 40% 1 12.06.2027 -
Joaquín Silva Plaza Colonia Activo 113 / 105 40% 1 12.06.2027 -
Stanislav Kleschuk Gomel Activo 99 / 99 40% 1 11.06.2027 -
Alexey Kharitonovich Slutsk Activo 87 / 78 40% 1 11.06.2027 -
Bogdan Ovsyannikov Orenburg Activo 113 / 114 40% 6 08.06.2027 -
Sergey Ignatovich Torpedo-BelAZ Activo 97 / 95 40% 1 06.06.2027 -
Artur Anisimov KAMAZ Activo 94 / 96 40% 3 05.06.2027 -
Vladimir Pavlov Saturn Activo 75 / 76 40% 3 05.06.2027 -
Nikita Medvedev Nizhniy Novgorod Activo 113 / 104 40% 3 01.06.2027 -
Islam Imamov SKA Khabarovsk Activo 93 / 97 40% 3 31.05.2027 -
Nikita Pavlov Chaika Activo 77 / 88 40% 2 31.05.2027 -
Maxim Shichanin Zenit Activo 86 / 93 40% 1 30.05.2027 -
Andrey Golubev Neftekhimik Activo 103 / 101 40% 4 29.05.2027 -
Nikolay Rybikov Dinamo St Petersburg Activo 89 / 83 40% 1 29.05.2027 -
David Sangaré Ryazan Activo 97 / 97 40% 2 25.05.2027 -
Vladislav Kucheiko Sevastopol Activo 73 / 75 40% 1 25.05.2027 -
Maxim Vafiev Torpedo Vladimir Activo 75 / 87 40% 6 24.05.2027 -
Roman Anikeev Dinamo Vologda Activo 75 / 80 40% 1 24.05.2027 -
Cristian Rivero Real Sociedad Activo 121 / 111 40% 2 22.05.2027 -
Kaur Kivila Flora Activo 96 / 88 40% 1 20.05.2027 -
Ilja Tuseev Chelyabinsk Activo 91 / 99 40% 1 19.05.2027 -
Georgy Tuaev Rubin Yalta Activo 79 / 79 40% 1 16.05.2027 -
Vladimir Tsapurin SKA Khabarovsk Activo 75 / 86 40% 2 14.05.2027 -
Ivan Lomaev Ufa Activo 115 / 117 40% 4 10.05.2027 -
Denis Vambolt Shinnik Activo 93 / 97 40% 3 10.05.2027 -
Vladislav Zernaev Salyut Activo 85 / 81 40% 2 05.05.2027 -
Sergey Volkov Rodina Activo 101 / 116 40% 1 04.05.2027 -
Petr Kosarevskiy Sibir Activo 105 / 98 40% 2 23.04.2027 -
Nuno Rafael Nart Activo 66 / 74 40% 1 23.04.2027 -
Timur Kraikov Sokol Activo 100 / 93 40% 1 22.04.2027 -
Dmitry Rebrov Volna Activo 72 / 82 40% 1 21.04.2027 -
Roman Raifegerste Khimik Activo 75 / 91 40% 1 21.04.2027 -
Rostislav Soldatenko Torpedo Moscow Activo 104 / 102 40% 2 16.04.2027 -
Aslanbek Kumykov Spartak Nalchik Activo 63 / 65 40% 1 14.04.2027 -
Timur Akmurzin Dinamo Bryansk Activo 85 / 91 40% 1 10.04.2027 -
Ovidijus Verbickas Zalgiris Activo 101 / 110 40% 1 04.08.2026 -
Tomás Galván River Plate Activo 112 / 127 40% 1 04.08.2026 -
Gastón Lodico Racing Club Activo 135 / 126 40% 1 01.08.2026 -